sensor_id;sensor_type;location;lat;lon;timestamp;P1;durP1;ratioP1;P2;durP2;ratioP2
9964;SDS011;5023;53.554;9.964;2023-12-07T00:02:40;86.00;;;44.10;;
9964;SDS011;5023;53.554;9.964;2023-12-07T00:07:47;84.27;;;39.67;;
9964;SDS011;5023;53.554;9.964;2023-12-07T00:12:50;89.00;;;42.33;;
9964;SDS011;5023;53.554;9.964;2023-12-07T00:17:52;84.77;;;41.77;;
9964;SDS011;5023;53.554;9.964;2023-12-07T00:22:54;82.57;;;40.77;;
9964;SDS011;5023;53.554;9.964;2023-12-07T00:27:57;83.80;;;39.93;;
9964;SDS011;5023;53.554;9.964;2023-12-07T00:33:00;79.67;;;38.73;;
9964;SDS011;5023;53.554;9.964;2023-12-07T00:38:03;81.63;;;40.33;;
9964;SDS011;5023;53.554;9.964;2023-12-07T00:43:10;82.60;;;39.47;;
9964;SDS011;5023;53.554;9.964;2023-12-07T00:48:12;86.73;;;41.57;;
9964;SDS011;5023;53.554;9.964;2023-12-07T00:53:16;84.17;;;38.27;;
9964;SDS011;5023;53.554;9.964;2023-12-07T00:58:19;83.80;;;37.77;;
9964;SDS011;5023;53.554;9.964;2023-12-07T01:03:21;85.90;;;39.53;;
9964;SDS011;5023;53.554;9.964;2023-12-07T01:08:23;87.03;;;40.10;;
9964;SDS011;5023;53.554;9.964;2023-12-07T01:13:26;82.83;;;39.53;;
9964;SDS011;5023;53.554;9.964;2023-12-07T01:18:28;78.13;;;37.77;;
9964;SDS011;5023;53.554;9.964;2023-12-07T01:23:31;74.93;;;37.07;;
9964;SDS011;5023;53.554;9.964;2023-12-07T01:28:34;80.73;;;37.27;;
9964;SDS011;5023;53.554;9.964;2023-12-07T01:33:36;80.20;;;37.97;;
9964;SDS011;5023;53.554;9.964;2023-12-07T01:38:39;86.77;;;38.27;;
9964;SDS011;5023;53.554;9.964;2023-12-07T01:43:45;81.23;;;36.63;;
9964;SDS011;5023;53.554;9.964;2023-12-07T01:48:48;77.33;;;36.50;;
9964;SDS011;5023;53.554;9.964;2023-12-07T01:53:50;75.83;;;34.93;;
9964;SDS011;5023;53.554;9.964;2023-12-07T01:58:53;75.40;;;36.67;;
9964;SDS011;5023;53.554;9.964;2023-12-07T02:03:55;73.97;;;34.70;;
9964;SDS011;5023;53.554;9.964;2023-12-07T02:08:57;76.13;;;36.03;;
9964;SDS011;5023;53.554;9.964;2023-12-07T02:14:01;71.03;;;36.07;;
9964;SDS011;5023;53.554;9.964;2023-12-07T02:19:05;64.60;;;33.27;;
9964;SDS011;5023;53.554;9.964;2023-12-07T02:24:20;70.63;;;36.00;;
9964;SDS011;5023;53.554;9.964;2023-12-07T02:29:24;64.67;;;34.90;;
9964;SDS011;5023;53.554;9.964;2023-12-07T02:34:26;63.53;;;33.77;;
9964;SDS011;5023;53.554;9.964;2023-12-07T02:39:28;64.40;;;34.40;;
9964;SDS011;5023;53.554;9.964;2023-12-07T02:44:31;65.60;;;35.07;;
9964;SDS011;5023;53.554;9.964;2023-12-07T02:49:33;61.23;;;33.40;;
9964;SDS011;5023;53.554;9.964;2023-12-07T02:54:35;57.27;;;33.37;;
9964;SDS011;5023;53.554;9.964;2023-12-07T02:59:39;62.90;;;33.77;;
9964;SDS011;5023;53.554;9.964;2023-12-07T03:04:40;63.43;;;34.13;;
9964;SDS011;5023;53.554;9.964;2023-12-07T03:09:42;64.70;;;34.23;;
9964;SDS011;5023;53.554;9.964;2023-12-07T03:14:46;61.83;;;33.80;;
9964;SDS011;5023;53.554;9.964;2023-12-07T03:19:47;63.00;;;35.33;;
9964;SDS011;5023;53.554;9.964;2023-12-07T03:24:50;64.70;;;34.63;;
9964;SDS011;5023;53.554;9.964;2023-12-07T03:29:54;61.03;;;32.00;;
9964;SDS011;5023;53.554;9.964;2023-12-07T03:34:56;56.50;;;32.20;;
9964;SDS011;5023;53.554;9.964;2023-12-07T03:39:58;57.70;;;31.97;;
9964;SDS011;5023;53.554;9.964;2023-12-07T03:45:01;52.43;;;33.03;;
9964;SDS011;5023;53.554;9.964;2023-12-07T03:50:04;56.57;;;32.70;;
9964;SDS011;5023;53.554;9.964;2023-12-07T03:55:07;55.40;;;32.23;;
9964;SDS011;5023;53.554;9.964;2023-12-07T04:00:12;54.43;;;32.63;;
9964;SDS011;5023;53.554;9.964;2023-12-07T04:05:15;50.60;;;30.53;;
9964;SDS011;5023;53.554;9.964;2023-12-07T04:10:17;57.70;;;32.80;;
9964;SDS011;5023;53.554;9.964;2023-12-07T04:15:20;54.67;;;32.67;;
9964;SDS011;5023;53.554;9.964;2023-12-07T04:20:23;54.73;;;31.57;;
9964;SDS011;5023;53.554;9.964;2023-12-07T04:25:24;48.67;;;30.33;;
9964;SDS011;5023;53.554;9.964;2023-12-07T04:30:28;51.63;;;30.00;;
9964;SDS011;5023;53.554;9.964;2023-12-07T04:35:34;50.77;;;31.47;;
9964;SDS011;5023;53.554;9.964;2023-12-07T04:40:36;54.13;;;32.17;;
9964;SDS011;5023;53.554;9.964;2023-12-07T04:45:39;47.50;;;30.00;;
9964;SDS011;5023;53.554;9.964;2023-12-07T04:50:41;51.00;;;31.37;;
9964;SDS011;5023;53.554;9.964;2023-12-07T04:55:43;51.83;;;30.60;;
9964;SDS011;5023;53.554;9.964;2023-12-07T05:00:51;48.37;;;30.03;;
9964;SDS011;5023;53.554;9.964;2023-12-07T05:05:53;55.43;;;32.77;;
9964;SDS011;5023;53.554;9.964;2023-12-07T05:10:55;49.93;;;31.37;;
9964;SDS011;5023;53.554;9.964;2023-12-07T05:15:58;46.80;;;31.40;;
9964;SDS011;5023;53.554;9.964;2023-12-07T05:21:00;50.27;;;31.47;;
9964;SDS011;5023;53.554;9.964;2023-12-07T05:26:02;51.80;;;31.57;;
9964;SDS011;5023;53.554;9.964;2023-12-07T05:31:05;46.93;;;30.43;;
9964;SDS011;5023;53.554;9.964;2023-12-07T05:36:09;49.57;;;31.33;;
9964;SDS011;5023;53.554;9.964;2023-12-07T05:41:12;55.27;;;32.27;;
9964;SDS011;5023;53.554;9.964;2023-12-07T05:46:15;50.53;;;32.27;;
9964;SDS011;5023;53.554;9.964;2023-12-07T05:51:17;55.77;;;33.67;;
9964;SDS011;5023;53.554;9.964;2023-12-07T05:56:20;51.93;;;32.50;;
9964;SDS011;5023;53.554;9.964;2023-12-07T06:01:23;50.80;;;32.67;;
9964;SDS011;5023;53.554;9.964;2023-12-07T06:06:25;56.43;;;33.63;;
9964;SDS011;5023;53.554;9.964;2023-12-07T06:11:27;50.03;;;31.80;;
9964;SDS011;5023;53.554;9.964;2023-12-07T06:16:30;54.63;;;34.50;;
9964;SDS011;5023;53.554;9.964;2023-12-07T06:21:32;48.60;;;31.97;;
9964;SDS011;5023;53.554;9.964;2023-12-07T06:26:37;53.77;;;33.60;;
9964;SDS011;5023;53.554;9.964;2023-12-07T06:31:43;55.53;;;35.60;;
9964;SDS011;5023;53.554;9.964;2023-12-07T06:36:45;53.97;;;34.97;;
9964;SDS011;5023;53.554;9.964;2023-12-07T06:41:47;55.53;;;35.87;;
9964;SDS011;5023;53.554;9.964;2023-12-07T06:46:51;59.83;;;38.83;;
9964;SDS011;5023;53.554;9.964;2023-12-07T06:51:53;59.13;;;38.17;;
9964;SDS011;5023;53.554;9.964;2023-12-07T06:56:54;53.30;;;35.03;;
9964;SDS011;5023;53.554;9.964;2023-12-07T07:01:58;54.23;;;36.67;;
9964;SDS011;5023;53.554;9.964;2023-12-07T07:07:00;51.67;;;34.10;;
9964;SDS011;5023;53.554;9.964;2023-12-07T07:12:02;48.80;;;34.00;;
9964;SDS011;5023;53.554;9.964;2023-12-07T07:17:06;51.90;;;34.63;;
9964;SDS011;5023;53.554;9.964;2023-12-07T07:22:08;50.03;;;33.17;;
9964;SDS011;5023;53.554;9.964;2023-12-07T07:27:10;51.57;;;33.97;;
9964;SDS011;5023;53.554;9.964;2023-12-07T07:32:13;51.73;;;33.20;;
9964;SDS011;5023;53.554;9.964;2023-12-07T07:37:16;51.77;;;34.37;;
9964;SDS011;5023;53.554;9.964;2023-12-07T07:42:19;52.23;;;34.17;;
9964;SDS011;5023;53.554;9.964;2023-12-07T07:47:22;49.10;;;34.13;;
9964;SDS011;5023;53.554;9.964;2023-12-07T07:52:24;47.77;;;34.10;;
9964;SDS011;5023;53.554;9.964;2023-12-07T07:57:26;47.57;;;33.90;;
9964;SDS011;5023;53.554;9.964;2023-12-07T08:02:29;50.90;;;34.53;;
9964;SDS011;5023;53.554;9.964;2023-12-07T08:07:31;49.47;;;33.17;;
9964;SDS011;5023;53.554;9.964;2023-12-07T08:12:33;47.03;;;32.43;;
9964;SDS011;5023;53.554;9.964;2023-12-07T08:17:36;52.90;;;35.53;;
9964;SDS011;5023;53.554;9.964;2023-12-07T08:22:40;49.27;;;33.37;;
9964;SDS011;5023;53.554;9.964;2023-12-07T08:27:42;50.37;;;33.73;;
9964;SDS011;5023;53.554;9.964;2023-12-07T08:32:46;52.63;;;33.73;;
9964;SDS011;5023;53.554;9.964;2023-12-07T08:37:48;46.70;;;33.20;;
9964;SDS011;5023;53.554;9.964;2023-12-07T08:42:50;45.73;;;32.87;;
9964;SDS011;5023;53.554;9.964;2023-12-07T08:47:53;44.73;;;31.37;;
9964;SDS011;5023;53.554;9.964;2023-12-07T08:52:55;48.47;;;32.33;;
9964;SDS011;5023;53.554;9.964;2023-12-07T08:57:57;45.93;;;31.20;;
9964;SDS011;5023;53.554;9.964;2023-12-07T09:03:03;52.00;;;36.23;;
9964;SDS011;5023;53.554;9.964;2023-12-07T09:08:05;47.03;;;33.60;;
9964;SDS011;5023;53.554;9.964;2023-12-07T09:13:06;47.30;;;32.00;;
9964;SDS011;5023;53.554;9.964;2023-12-07T09:18:10;54.03;;;37.13;;
9964;SDS011;5023;53.554;9.964;2023-12-07T09:23:12;51.57;;;34.20;;
9964;SDS011;5023;53.554;9.964;2023-12-07T09:28:15;52.60;;;35.30;;
9964;SDS011;5023;53.554;9.964;2023-12-07T09:33:19;69.93;;;45.70;;
9964;SDS011;5023;53.554;9.964;2023-12-07T09:38:21;58.07;;;37.90;;
9964;SDS011;5023;53.554;9.964;2023-12-07T09:43:22;55.57;;;37.20;;
9964;SDS011;5023;53.554;9.964;2023-12-07T09:48:26;58.43;;;38.13;;
9964;SDS011;5023;53.554;9.964;2023-12-07T09:53:29;57.77;;;38.40;;
9964;SDS011;5023;53.554;9.964;2023-12-07T09:58:34;60.93;;;39.50;;
9964;SDS011;5023;53.554;9.964;2023-12-07T10:03:37;65.70;;;40.87;;
9964;SDS011;5023;53.554;9.964;2023-12-07T10:08:39;63.03;;;38.60;;
9964;SDS011;5023;53.554;9.964;2023-12-07T10:13:41;51.47;;;34.77;;
9964;SDS011;5023;53.554;9.964;2023-12-07T10:18:44;48.73;;;32.20;;
9964;SDS011;5023;53.554;9.964;2023-12-07T10:23:46;49.37;;;33.60;;
9964;SDS011;5023;53.554;9.964;2023-12-07T10:28:48;50.17;;;33.97;;
9964;SDS011;5023;53.554;9.964;2023-12-07T10:33:54;51.47;;;33.67;;
9964;SDS011;5023;53.554;9.964;2023-12-07T10:38:56;52.57;;;33.10;;
9964;SDS011;5023;53.554;9.964;2023-12-07T10:43:59;50.80;;;34.57;;
9964;SDS011;5023;53.554;9.964;2023-12-07T10:49:04;56.33;;;34.43;;
9964;SDS011;5023;53.554;9.964;2023-12-07T10:54:08;60.97;;;38.70;;
9964;SDS011;5023;53.554;9.964;2023-12-07T10:59:15;54.07;;;34.93;;
9964;SDS011;5023;53.554;9.964;2023-12-07T11:04:19;52.70;;;34.47;;
9964;SDS011;5023;53.554;9.964;2023-12-07T11:09:24;52.73;;;33.40;;
9964;SDS011;5023;53.554;9.964;2023-12-07T11:14:29;48.50;;;32.13;;
9964;SDS011;5023;53.554;9.964;2023-12-07T11:24:56;66.73;;;37.03;;
9964;SDS011;5023;53.554;9.964;2023-12-07T11:30:02;69.03;;;40.93;;
9964;SDS011;5023;53.554;9.964;2023-12-07T11:35:06;75.00;;;42.97;;
9964;SDS011;5023;53.554;9.964;2023-12-07T11:40:13;66.90;;;40.23;;
9964;SDS011;5023;53.554;9.964;2023-12-07T11:45:15;68.37;;;39.30;;
9964;SDS011;5023;53.554;9.964;2023-12-07T11:50:39;64.70;;;39.27;;
9964;SDS011;5023;53.554;9.964;2023-12-07T11:55:56;68.70;;;42.80;;
9964;SDS011;5023;53.554;9.964;2023-12-07T12:00:59;59.33;;;36.90;;
9964;SDS011;5023;53.554;9.964;2023-12-07T12:06:03;55.57;;;36.07;;
9964;SDS011;5023;53.554;9.964;2023-12-07T12:11:08;52.30;;;33.43;;
9964;SDS011;5023;53.554;9.964;2023-12-07T12:16:10;57.27;;;36.20;;
9964;SDS011;5023;53.554;9.964;2023-12-07T12:21:14;54.43;;;36.97;;
9964;SDS011;5023;53.554;9.964;2023-12-07T12:26:18;56.73;;;37.67;;
9964;SDS011;5023;53.554;9.964;2023-12-07T12:31:20;46.83;;;32.77;;
9964;SDS011;5023;53.554;9.964;2023-12-07T12:36:24;49.23;;;32.47;;
9964;SDS011;5023;53.554;9.964;2023-12-07T12:41:28;44.17;;;31.10;;
9964;SDS011;5023;53.554;9.964;2023-12-07T12:46:31;45.27;;;31.27;;
9964;SDS011;5023;53.554;9.964;2023-12-07T12:51:37;45.17;;;30.30;;
9964;SDS011;5023;53.554;9.964;2023-12-07T12:56:39;42.67;;;29.37;;
9964;SDS011;5023;53.554;9.964;2023-12-07T13:01:44;44.10;;;30.43;;
9964;SDS011;5023;53.554;9.964;2023-12-07T13:06:47;48.47;;;33.17;;
9964;SDS011;5023;53.554;9.964;2023-12-07T13:11:50;49.43;;;34.73;;
9964;SDS011;5023;53.554;9.964;2023-12-07T13:16:52;51.43;;;34.80;;
9964;SDS011;5023;53.554;9.964;2023-12-07T13:21:55;50.03;;;33.10;;
9964;SDS011;5023;53.554;9.964;2023-12-07T13:26:57;48.23;;;32.87;;
9964;SDS011;5023;53.554;9.964;2023-12-07T13:32:03;51.90;;;34.80;;
9964;SDS011;5023;53.554;9.964;2023-12-07T13:37:07;50.07;;;35.50;;
9964;SDS011;5023;53.554;9.964;2023-12-07T13:42:09;44.37;;;33.30;;
9964;SDS011;5023;53.554;9.964;2023-12-07T13:47:12;41.67;;;29.83;;
9964;SDS011;5023;53.554;9.964;2023-12-07T13:52:17;42.70;;;30.07;;
9964;SDS011;5023;53.554;9.964;2023-12-07T13:57:33;44.23;;;30.17;;
9964;SDS011;5023;53.554;9.964;2023-12-07T14:02:35;43.67;;;30.93;;
9964;SDS011;5023;53.554;9.964;2023-12-07T14:07:38;45.07;;;31.03;;
9964;SDS011;5023;53.554;9.964;2023-12-07T14:12:40;43.17;;;28.63;;
9964;SDS011;5023;53.554;9.964;2023-12-07T14:17:42;39.27;;;28.97;;
9964;SDS011;5023;53.554;9.964;2023-12-07T14:22:46;42.57;;;29.10;;
9964;SDS011;5023;53.554;9.964;2023-12-07T14:27:49;42.13;;;28.47;;
9964;SDS011;5023;53.554;9.964;2023-12-07T14:32:51;43.17;;;28.43;;
9964;SDS011;5023;53.554;9.964;2023-12-07T14:37:54;45.77;;;30.37;;
9964;SDS011;5023;53.554;9.964;2023-12-07T14:48:19;42.53;;;29.07;;
9964;SDS011;5023;53.554;9.964;2023-12-07T14:53:22;43.43;;;30.17;;
9964;SDS011;5023;53.554;9.964;2023-12-07T14:58:25;44.53;;;30.10;;
9964;SDS011;5023;53.554;9.964;2023-12-07T15:03:27;41.50;;;28.57;;
9964;SDS011;5023;53.554;9.964;2023-12-07T15:08:30;41.90;;;28.80;;
9964;SDS011;5023;53.554;9.964;2023-12-07T15:13:33;35.83;;;26.60;;
9964;SDS011;5023;53.554;9.964;2023-12-07T15:18:36;41.53;;;28.87;;
9964;SDS011;5023;53.554;9.964;2023-12-07T15:23:40;42.90;;;29.33;;
9964;SDS011;5023;53.554;9.964;2023-12-07T15:28:42;37.63;;;27.00;;
9964;SDS011;5023;53.554;9.964;2023-12-07T15:33:44;42.07;;;27.80;;
9964;SDS011;5023;53.554;9.964;2023-12-07T15:38:48;61.87;;;41.63;;
9964;SDS011;5023;53.554;9.964;2023-12-07T15:44:08;41.73;;;29.20;;
9964;SDS011;5023;53.554;9.964;2023-12-07T15:49:10;42.43;;;29.17;;
9964;SDS011;5023;53.554;9.964;2023-12-07T15:54:14;39.53;;;27.93;;
9964;SDS011;5023;53.554;9.964;2023-12-07T15:59:16;38.57;;;28.20;;
9964;SDS011;5023;53.554;9.964;2023-12-07T16:04:19;43.73;;;29.53;;
9964;SDS011;5023;53.554;9.964;2023-12-07T16:09:23;44.50;;;29.23;;
9964;SDS011;5023;53.554;9.964;2023-12-07T16:14:25;43.00;;;28.87;;
9964;SDS011;5023;53.554;9.964;2023-12-07T16:19:27;44.43;;;28.70;;
9964;SDS011;5023;53.554;9.964;2023-12-07T16:24:31;41.13;;;28.13;;
9964;SDS011;5023;53.554;9.964;2023-12-07T16:29:35;42.57;;;28.80;;
9964;SDS011;5023;53.554;9.964;2023-12-07T16:34:37;42.40;;;30.17;;
9964;SDS011;5023;53.554;9.964;2023-12-07T16:39:42;41.03;;;27.60;;
9964;SDS011;5023;53.554;9.964;2023-12-07T16:44:44;42.20;;;28.47;;
9964;SDS011;5023;53.554;9.964;2023-12-07T16:49:51;43.80;;;29.33;;
9964;SDS011;5023;53.554;9.964;2023-12-07T16:54:55;43.23;;;29.57;;
9964;SDS011;5023;53.554;9.964;2023-12-07T16:59:58;41.33;;;28.57;;
9964;SDS011;5023;53.554;9.964;2023-12-07T17:05:02;44.40;;;31.13;;
9964;SDS011;5023;53.554;9.964;2023-12-07T17:10:07;44.10;;;28.50;;
9964;SDS011;5023;53.554;9.964;2023-12-07T17:15:09;41.10;;;28.27;;
9964;SDS011;5023;53.554;9.964;2023-12-07T17:20:12;35.50;;;25.03;;
9964;SDS011;5023;53.554;9.964;2023-12-07T17:25:15;38.93;;;27.57;;
9964;SDS011;5023;53.554;9.964;2023-12-07T17:30:19;41.27;;;26.80;;
9964;SDS011;5023;53.554;9.964;2023-12-07T17:35:21;39.03;;;26.83;;
9964;SDS011;5023;53.554;9.964;2023-12-07T17:40:25;34.30;;;24.77;;
9964;SDS011;5023;53.554;9.964;2023-12-07T17:45:27;36.47;;;25.03;;
9964;SDS011;5023;53.554;9.964;2023-12-07T17:50:29;38.97;;;26.67;;
9964;SDS011;5023;53.554;9.964;2023-12-07T17:55:32;43.97;;;28.47;;
9964;SDS011;5023;53.554;9.964;2023-12-07T18:00:34;47.93;;;31.80;;
9964;SDS011;5023;53.554;9.964;2023-12-07T18:05:36;56.77;;;35.57;;
9964;SDS011;5023;53.554;9.964;2023-12-07T18:10:39;49.00;;;32.13;;
9964;SDS011;5023;53.554;9.964;2023-12-07T18:15:41;50.80;;;31.40;;
9964;SDS011;5023;53.554;9.964;2023-12-07T18:20:43;48.17;;;30.50;;
9964;SDS011;5023;53.554;9.964;2023-12-07T18:25:46;43.90;;;28.80;;
9964;SDS011;5023;53.554;9.964;2023-12-07T18:30:48;43.60;;;28.33;;
9964;SDS011;5023;53.554;9.964;2023-12-07T18:35:50;47.03;;;28.47;;
9964;SDS011;5023;53.554;9.964;2023-12-07T18:40:53;48.03;;;28.87;;
9964;SDS011;5023;53.554;9.964;2023-12-07T18:45:55;42.30;;;26.73;;
9964;SDS011;5023;53.554;9.964;2023-12-07T18:50:57;45.40;;;27.90;;
9964;SDS011;5023;53.554;9.964;2023-12-07T18:56:01;42.50;;;26.97;;
9964;SDS011;5023;53.554;9.964;2023-12-07T19:01:04;50.00;;;30.57;;
9964;SDS011;5023;53.554;9.964;2023-12-07T19:06:06;59.17;;;35.70;;
9964;SDS011;5023;53.554;9.964;2023-12-07T19:11:10;52.50;;;30.73;;
9964;SDS011;5023;53.554;9.964;2023-12-07T19:16:12;51.37;;;30.67;;
9964;SDS011;5023;53.554;9.964;2023-12-07T19:21:15;41.27;;;26.37;;
9964;SDS011;5023;53.554;9.964;2023-12-07T19:26:18;49.27;;;29.27;;
9964;SDS011;5023;53.554;9.964;2023-12-07T19:31:20;46.57;;;28.57;;
9964;SDS011;5023;53.554;9.964;2023-12-07T19:36:22;42.30;;;26.63;;
9964;SDS011;5023;53.554;9.964;2023-12-07T19:41:26;45.20;;;28.87;;
9964;SDS011;5023;53.554;9.964;2023-12-07T19:46:27;59.83;;;32.27;;
9964;SDS011;5023;53.554;9.964;2023-12-07T19:51:29;48.30;;;27.77;;
9964;SDS011;5023;53.554;9.964;2023-12-07T19:56:33;45.87;;;29.33;;
9964;SDS011;5023;53.554;9.964;2023-12-07T20:01:35;48.73;;;28.73;;
9964;SDS011;5023;53.554;9.964;2023-12-07T20:06:36;49.63;;;28.63;;
9964;SDS011;5023;53.554;9.964;2023-12-07T20:11:40;49.57;;;28.57;;
9964;SDS011;5023;53.554;9.964;2023-12-07T20:16:43;50.73;;;27.80;;
9964;SDS011;5023;53.554;9.964;2023-12-07T20:21:45;58.77;;;32.30;;
9964;SDS011;5023;53.554;9.964;2023-12-07T20:26:48;53.80;;;29.83;;
9964;SDS011;5023;53.554;9.964;2023-12-07T20:31:50;70.93;;;34.90;;
9964;SDS011;5023;53.554;9.964;2023-12-07T20:36:52;62.77;;;34.77;;
9964;SDS011;5023;53.554;9.964;2023-12-07T20:41:56;60.80;;;34.10;;
9964;SDS011;5023;53.554;9.964;2023-12-07T20:46:58;50.83;;;29.43;;
9964;SDS011;5023;53.554;9.964;2023-12-07T20:51:59;49.77;;;28.13;;
9964;SDS011;5023;53.554;9.964;2023-12-07T20:57:03;48.53;;;27.83;;
9964;SDS011;5023;53.554;9.964;2023-12-07T21:02:05;53.80;;;30.13;;
9964;SDS011;5023;53.554;9.964;2023-12-07T21:07:07;54.87;;;30.13;;
9964;SDS011;5023;53.554;9.964;2023-12-07T21:12:11;55.20;;;29.10;;
9964;SDS011;5023;53.554;9.964;2023-12-07T21:17:13;53.60;;;29.53;;
9964;SDS011;5023;53.554;9.964;2023-12-07T21:22:18;57.77;;;31.20;;
9964;SDS011;5023;53.554;9.964;2023-12-07T21:27:23;52.60;;;29.87;;
9964;SDS011;5023;53.554;9.964;2023-12-07T21:32:25;55.87;;;30.63;;
9964;SDS011;5023;53.554;9.964;2023-12-07T21:37:27;56.93;;;29.83;;
9964;SDS011;5023;53.554;9.964;2023-12-07T21:42:30;63.87;;;33.83;;
9964;SDS011;5023;53.554;9.964;2023-12-07T21:47:32;66.47;;;34.43;;
9964;SDS011;5023;53.554;9.964;2023-12-07T21:52:34;75.40;;;35.73;;
9964;SDS011;5023;53.554;9.964;2023-12-07T21:57:37;57.53;;;29.17;;
9964;SDS011;5023;53.554;9.964;2023-12-07T22:02:39;58.53;;;28.83;;
9964;SDS011;5023;53.554;9.964;2023-12-07T22:07:41;66.43;;;30.77;;
9964;SDS011;5023;53.554;9.964;2023-12-07T22:12:45;54.67;;;28.60;;
9964;SDS011;5023;53.554;9.964;2023-12-07T22:17:47;65.47;;;30.83;;
9964;SDS011;5023;53.554;9.964;2023-12-07T22:22:49;56.40;;;27.97;;
9964;SDS011;5023;53.554;9.964;2023-12-07T22:27:52;50.10;;;26.33;;
9964;SDS011;5023;53.554;9.964;2023-12-07T22:32:55;58.90;;;29.07;;
9964;SDS011;5023;53.554;9.964;2023-12-07T22:37:57;53.43;;;27.30;;
9964;SDS011;5023;53.554;9.964;2023-12-07T22:43:00;56.00;;;26.37;;
9964;SDS011;5023;53.554;9.964;2023-12-07T22:48:02;64.57;;;28.53;;
9964;SDS011;5023;53.554;9.964;2023-12-07T22:53:06;51.00;;;27.67;;
9964;SDS011;5023;53.554;9.964;2023-12-07T22:58:09;56.07;;;28.60;;
9964;SDS011;5023;53.554;9.964;2023-12-07T23:03:11;52.07;;;26.23;;
9964;SDS011;5023;53.554;9.964;2023-12-07T23:08:13;42.53;;;24.30;;
9964;SDS011;5023;53.554;9.964;2023-12-07T23:13:16;49.03;;;26.10;;
9964;SDS011;5023;53.554;9.964;2023-12-07T23:18:18;46.40;;;27.87;;
9964;SDS011;5023;53.554;9.964;2023-12-07T23:23:20;41.93;;;25.33;;
9964;SDS011;5023;53.554;9.964;2023-12-07T23:28:25;40.13;;;24.10;;
9964;SDS011;5023;53.554;9.964;2023-12-07T23:33:27;43.60;;;25.00;;
9964;SDS011;5023;53.554;9.964;2023-12-07T23:38:29;45.27;;;26.00;;
9964;SDS011;5023;53.554;9.964;2023-12-07T23:43:33;41.20;;;24.70;;
9964;SDS011;5023;53.554;9.964;2023-12-07T23:48:35;40.93;;;23.60;;
9964;SDS011;5023;53.554;9.964;2023-12-07T23:53:36;38.93;;;24.10;;
9964;SDS011;5023;53.554;9.964;2023-12-07T23:58:40;37.97;;;24.00;;
